sensor_id;sensor_type;location;lat;lon;timestamp;P1;durP1;ratioP1;P2;durP2;ratioP2
75504;SDS011;64085;54.974;73.410;2023-04-03T00:05:02;3.20;;;1.80;;
75504;SDS011;64085;54.974;73.410;2023-04-03T00:10:15;4.20;;;1.25;;
75504;SDS011;64085;54.974;73.410;2023-04-03T00:12:41;2.35;;;1.13;;
75504;SDS011;64085;54.974;73.410;2023-04-03T00:15:06;9.68;;;2.10;;
75504;SDS011;64085;54.974;73.410;2023-04-03T00:17:32;2.08;;;1.60;;
75504;SDS011;64085;54.974;73.410;2023-04-03T00:20:18;2.53;;;1.48;;
75504;SDS011;64085;54.974;73.410;2023-04-03T00:22:43;3.65;;;2.08;;
75504;SDS011;64085;54.974;73.410;2023-04-03T00:25:09;4.55;;;1.92;;
75504;SDS011;64085;54.974;73.410;2023-04-03T00:27:54;3.13;;;1.67;;
75504;SDS011;64085;54.974;73.410;2023-04-03T00:30:20;6.72;;;3.30;;
75504;SDS011;64085;54.974;73.410;2023-04-03T00:32:47;4.25;;;1.95;;
75504;SDS011;64085;54.974;73.410;2023-04-03T00:35:17;1.70;;;1.35;;
75504;SDS011;64085;54.974;73.410;2023-04-03T00:37:44;5.07;;;1.77;;
75504;SDS011;64085;54.974;73.410;2023-04-03T00:40:27;4.05;;;1.77;;
75504;SDS011;64085;54.974;73.410;2023-04-03T00:43:02;4.63;;;2.47;;
75504;SDS011;64085;54.974;73.410;2023-04-03T00:45:37;5.93;;;2.88;;
75504;SDS011;64085;54.974;73.410;2023-04-03T00:51:11;5.05;;;1.63;;
75504;SDS011;64085;54.974;73.410;2023-04-03T00:53:41;5.20;;;2.88;;
75504;SDS011;64085;54.974;73.410;2023-04-03T00:56:12;5.93;;;2.45;;
75504;SDS011;64085;54.974;73.410;2023-04-03T00:58:42;7.55;;;2.67;;
75504;SDS011;64085;54.974;73.410;2023-04-03T01:01:35;8.52;;;3.03;;
75504;SDS011;64085;54.974;73.410;2023-04-03T01:06:57;6.07;;;2.40;;
75504;SDS011;64085;54.974;73.410;2023-04-03T01:09:27;8.23;;;4.05;;
75504;SDS011;64085;54.974;73.410;2023-04-03T01:11:54;8.77;;;4.80;;
75504;SDS011;64085;54.974;73.410;2023-04-03T01:14:20;10.63;;;4.03;;
75504;SDS011;64085;54.974;73.410;2023-04-03T01:16:55;5.65;;;3.28;;
75504;SDS011;64085;54.974;73.410;2023-04-03T01:19:20;6.32;;;4.22;;
75504;SDS011;64085;54.974;73.410;2023-04-03T01:21:54;6.22;;;3.67;;
75504;SDS011;64085;54.974;73.410;2023-04-03T01:24:37;5.57;;;3.85;;
75504;SDS011;64085;54.974;73.410;2023-04-03T01:29:32;10.45;;;4.07;;
75504;SDS011;64085;54.974;73.410;2023-04-03T01:31:59;8.63;;;3.47;;
75504;SDS011;64085;54.974;73.410;2023-04-03T01:34:26;5.55;;;4.10;;
75504;SDS011;64085;54.974;73.410;2023-04-03T01:36:53;8.88;;;4.68;;
75504;SDS011;64085;54.974;73.410;2023-04-03T01:39:19;7.80;;;4.93;;
75504;SDS011;64085;54.974;73.410;2023-04-03T01:41:46;7.18;;;2.63;;
75504;SDS011;64085;54.974;73.410;2023-04-03T01:44:12;7.25;;;3.70;;
75504;SDS011;64085;54.974;73.410;2023-04-03T01:46:38;12.10;;;3.88;;
75504;SDS011;64085;54.974;73.410;2023-04-03T01:49:04;4.43;;;2.92;;
75504;SDS011;64085;54.974;73.410;2023-04-03T01:51:30;6.53;;;2.25;;
75504;SDS011;64085;54.974;73.410;2023-04-03T01:53:56;10.55;;;3.05;;
75504;SDS011;64085;54.974;73.410;2023-04-03T01:56:22;5.32;;;3.50;;
75504;SDS011;64085;54.974;73.410;2023-04-03T01:58:47;5.55;;;3.78;;
75504;SDS011;64085;54.974;73.410;2023-04-03T02:01:13;7.55;;;2.80;;
75504;SDS011;64085;54.974;73.410;2023-04-03T02:03:57;9.07;;;3.92;;
75504;SDS011;64085;54.974;73.410;2023-04-03T02:06:23;5.97;;;3.63;;
75504;SDS011;64085;54.974;73.410;2023-04-03T02:08:48;5.57;;;2.60;;
75504;SDS011;64085;54.974;73.410;2023-04-03T02:11:32;7.38;;;4.05;;
75504;SDS011;64085;54.974;73.410;2023-04-03T02:14:17;12.43;;;3.85;;
75504;SDS011;64085;54.974;73.410;2023-04-03T02:16:42;7.93;;;3.75;;
75504;SDS011;64085;54.974;73.410;2023-04-03T02:19:08;8.63;;;5.07;;
75504;SDS011;64085;54.974;73.410;2023-04-03T02:21:34;10.55;;;3.58;;
75504;SDS011;64085;54.974;73.410;2023-04-03T02:26:44;8.20;;;3.70;;
75504;SDS011;64085;54.974;73.410;2023-04-03T02:29:09;6.88;;;3.72;;
75504;SDS011;64085;54.974;73.410;2023-04-03T02:31:35;7.82;;;3.10;;
75504;SDS011;64085;54.974;73.410;2023-04-03T02:34:01;4.90;;;3.33;;
75504;SDS011;64085;54.974;73.410;2023-04-03T02:37:03;8.73;;;4.88;;
75504;SDS011;64085;54.974;73.410;2023-04-03T02:42:13;4.70;;;2.83;;
75504;SDS011;64085;54.974;73.410;2023-04-03T02:44:39;6.93;;;3.17;;
75504;SDS011;64085;54.974;73.410;2023-04-03T02:47:05;12.60;;;5.28;;
75504;SDS011;64085;54.974;73.410;2023-04-03T02:49:30;6.38;;;3.50;;
75504;SDS011;64085;54.974;73.410;2023-04-03T02:52:15;13.07;;;3.75;;
75504;SDS011;64085;54.974;73.410;2023-04-03T02:54:41;4.57;;;3.20;;
75504;SDS011;64085;54.974;73.410;2023-04-03T02:57:06;7.00;;;3.85;;
75504;SDS011;64085;54.974;73.410;2023-04-03T02:59:38;8.80;;;3.80;;
75504;SDS011;64085;54.974;73.410;2023-04-03T03:02:07;11.23;;;4.57;;
75504;SDS011;64085;54.974;73.410;2023-04-03T03:04:51;11.55;;;4.43;;
75504;SDS011;64085;54.974;73.410;2023-04-03T03:07:17;14.23;;;5.10;;
75504;SDS011;64085;54.974;73.410;2023-04-03T03:09:42;10.88;;;4.78;;
75504;SDS011;64085;54.974;73.410;2023-04-03T03:12:08;12.38;;;5.25;;
75504;SDS011;64085;54.974;73.410;2023-04-03T03:14:52;9.27;;;3.97;;
75504;SDS011;64085;54.974;73.410;2023-04-03T03:17:18;14.20;;;5.10;;
75504;SDS011;64085;54.974;73.410;2023-04-03T03:19:43;10.65;;;3.85;;
75504;SDS011;64085;54.974;73.410;2023-04-03T03:22:28;10.65;;;4.65;;
75504;SDS011;64085;54.974;73.410;2023-04-03T03:25:12;17.88;;;5.45;;
75504;SDS011;64085;54.974;73.410;2023-04-03T03:27:56;12.82;;;5.20;;
75504;SDS011;64085;54.974;73.410;2023-04-03T03:30:21;8.57;;;5.03;;
75504;SDS011;64085;54.974;73.410;2023-04-03T03:33:06;13.38;;;4.95;;
75504;SDS011;64085;54.974;73.410;2023-04-03T03:35:32;8.43;;;4.35;;
75504;SDS011;64085;54.974;73.410;2023-04-03T03:37:57;21.85;;;4.90;;
75504;SDS011;64085;54.974;73.410;2023-04-03T03:40:23;13.60;;;5.25;;
75504;SDS011;64085;54.974;73.410;2023-04-03T03:42:49;7.45;;;3.95;;
75504;SDS011;64085;54.974;73.410;2023-04-03T03:45:14;11.57;;;4.63;;
75504;SDS011;64085;54.974;73.410;2023-04-03T03:47:40;9.35;;;4.75;;
75504;SDS011;64085;54.974;73.410;2023-04-03T03:50:06;13.95;;;8.05;;
75504;SDS011;64085;54.974;73.410;2023-04-03T03:52:32;9.30;;;5.13;;
75504;SDS011;64085;54.974;73.410;2023-04-03T03:54:58;11.82;;;6.40;;
75504;SDS011;64085;54.974;73.410;2023-04-03T04:00:07;14.80;;;7.07;;
75504;SDS011;64085;54.974;73.410;2023-04-03T04:02:33;15.35;;;6.95;;
75504;SDS011;64085;54.974;73.410;2023-04-03T04:04:59;11.63;;;6.10;;
75504;SDS011;64085;54.974;73.410;2023-04-03T04:07:25;9.05;;;5.28;;
75504;SDS011;64085;54.974;73.410;2023-04-03T04:09:53;10.07;;;5.22;;
75504;SDS011;64085;54.974;73.410;2023-04-03T04:12:19;14.38;;;6.32;;
75504;SDS011;64085;54.974;73.410;2023-04-03T04:14:46;9.25;;;5.43;;
75504;SDS011;64085;54.974;73.410;2023-04-03T04:17:30;12.95;;;5.97;;
75504;SDS011;64085;54.974;73.410;2023-04-03T04:19:56;13.45;;;5.85;;
75504;SDS011;64085;54.974;73.410;2023-04-03T04:22:21;18.45;;;6.97;;
75504;SDS011;64085;54.974;73.410;2023-04-03T04:24:47;17.13;;;6.75;;
75504;SDS011;64085;54.974;73.410;2023-04-03T04:27:12;14.82;;;6.68;;
75504;SDS011;64085;54.974;73.410;2023-04-03T04:29:38;13.38;;;6.97;;
75504;SDS011;64085;54.974;73.410;2023-04-03T04:32:04;14.20;;;6.85;;
75504;SDS011;64085;54.974;73.410;2023-04-03T04:34:30;14.30;;;7.13;;
75504;SDS011;64085;54.974;73.410;2023-04-03T04:36:55;17.25;;;6.80;;
75504;SDS011;64085;54.974;73.410;2023-04-03T04:39:21;17.40;;;6.63;;
75504;SDS011;64085;54.974;73.410;2023-04-03T04:41:47;15.75;;;7.43;;
75504;SDS011;64085;54.974;73.410;2023-04-03T04:44:32;18.27;;;7.63;;
75504;SDS011;64085;54.974;73.410;2023-04-03T04:47:16;14.13;;;7.88;;
75504;SDS011;64085;54.974;73.410;2023-04-03T04:49:41;16.40;;;7.30;;
75504;SDS011;64085;54.974;73.410;2023-04-03T04:52:07;11.63;;;5.75;;
75504;SDS011;64085;54.974;73.410;2023-04-03T04:54:51;12.25;;;7.10;;
75504;SDS011;64085;54.974;73.410;2023-04-03T04:57:17;14.77;;;7.25;;
75504;SDS011;64085;54.974;73.410;2023-04-03T05:02:28;14.88;;;6.78;;
75504;SDS011;64085;54.974;73.410;2023-04-03T05:04:53;18.40;;;7.47;;
75504;SDS011;64085;54.974;73.410;2023-04-03T05:07:19;15.23;;;7.43;;
75504;SDS011;64085;54.974;73.410;2023-04-03T05:09:45;15.20;;;8.20;;
75504;SDS011;64085;54.974;73.410;2023-04-03T05:12:29;12.93;;;6.43;;
75504;SDS011;64085;54.974;73.410;2023-04-03T05:17:57;17.23;;;7.85;;
75504;SDS011;64085;54.974;73.410;2023-04-03T05:20:24;10.30;;;6.13;;
75504;SDS011;64085;54.974;73.410;2023-04-03T05:25:37;15.52;;;6.55;;
75504;SDS011;64085;54.974;73.410;2023-04-03T05:28:03;13.40;;;6.30;;
75504;SDS011;64085;54.974;73.410;2023-04-03T05:30:29;12.25;;;6.55;;
75504;SDS011;64085;54.974;73.410;2023-04-03T05:33:12;11.60;;;5.65;;
75504;SDS011;64085;54.974;73.410;2023-04-03T05:35:39;13.75;;;6.97;;
75504;SDS011;64085;54.974;73.410;2023-04-03T05:38:06;14.73;;;7.93;;
75504;SDS011;64085;54.974;73.410;2023-04-03T05:40:32;10.98;;;5.43;;
75504;SDS011;64085;54.974;73.410;2023-04-03T05:46:02;13.75;;;5.13;;
75504;SDS011;64085;54.974;73.410;2023-04-03T05:48:28;13.20;;;4.72;;
75504;SDS011;64085;54.974;73.410;2023-04-03T05:51:16;8.18;;;3.92;;
75504;SDS011;64085;54.974;73.410;2023-04-03T05:54:13;8.63;;;4.40;;
75504;SDS011;64085;54.974;73.410;2023-04-03T05:56:39;8.10;;;4.43;;
75504;SDS011;64085;54.974;73.410;2023-04-03T05:59:05;7.63;;;5.28;;
75504;SDS011;64085;54.974;73.410;2023-04-03T06:01:32;13.73;;;7.13;;
75504;SDS011;64085;54.974;73.410;2023-04-03T06:03:59;10.45;;;6.70;;
75504;SDS011;64085;54.974;73.410;2023-04-03T06:06:24;11.65;;;5.57;;
75504;SDS011;64085;54.974;73.410;2023-04-03T06:08:50;10.75;;;5.75;;
75504;SDS011;64085;54.974;73.410;2023-04-03T06:11:16;11.68;;;4.88;;
75504;SDS011;64085;54.974;73.410;2023-04-03T06:13:42;12.07;;;4.75;;
75504;SDS011;64085;54.974;73.410;2023-04-03T06:16:09;10.43;;;5.13;;
75504;SDS011;64085;54.974;73.410;2023-04-03T06:18:40;13.48;;;4.75;;
75504;SDS011;64085;54.974;73.410;2023-04-03T06:21:06;9.70;;;4.18;;
75504;SDS011;64085;54.974;73.410;2023-04-03T06:26:17;12.63;;;5.00;;
75504;SDS011;64085;54.974;73.410;2023-04-03T06:28:42;14.55;;;5.38;;
75504;SDS011;64085;54.974;73.410;2023-04-03T06:31:08;11.90;;;5.97;;
75504;SDS011;64085;54.974;73.410;2023-04-03T06:39:22;9.05;;;5.25;;
75504;SDS011;64085;54.974;73.410;2023-04-03T06:41:48;14.15;;;4.80;;
75504;SDS011;64085;54.974;73.410;2023-04-03T06:44:15;12.65;;;4.28;;
75504;SDS011;64085;54.974;73.410;2023-04-03T06:46:41;5.82;;;3.42;;
75504;SDS011;64085;54.974;73.410;2023-04-03T06:49:08;15.90;;;4.82;;
75504;SDS011;64085;54.974;73.410;2023-04-03T06:51:34;12.77;;;4.35;;
75504;SDS011;64085;54.974;73.410;2023-04-03T06:56:45;13.48;;;4.72;;
75504;SDS011;64085;54.974;73.410;2023-04-03T06:59:12;11.57;;;4.30;;
75504;SDS011;64085;54.974;73.410;2023-04-03T07:01:38;9.68;;;3.33;;
75504;SDS011;64085;54.974;73.410;2023-04-03T07:04:05;8.95;;;3.75;;
75504;SDS011;64085;54.974;73.410;2023-04-03T07:06:32;7.85;;;4.45;;
75504;SDS011;64085;54.974;73.410;2023-04-03T07:08:59;11.63;;;4.38;;
75504;SDS011;64085;54.974;73.410;2023-04-03T07:11:25;5.68;;;2.92;;
75504;SDS011;64085;54.974;73.410;2023-04-03T07:13:51;10.13;;;4.43;;
75504;SDS011;64085;54.974;73.410;2023-04-03T07:16:17;8.25;;;3.70;;
75504;SDS011;64085;54.974;73.410;2023-04-03T07:18:43;10.32;;;4.88;;
75504;SDS011;64085;54.974;73.410;2023-04-03T07:21:09;11.75;;;3.78;;
75504;SDS011;64085;54.974;73.410;2023-04-03T07:23:54;8.70;;;3.17;;
75504;SDS011;64085;54.974;73.410;2023-04-03T07:26:19;10.55;;;3.95;;
75504;SDS011;64085;54.974;73.410;2023-04-03T07:28:46;9.70;;;3.20;;
75504;SDS011;64085;54.974;73.410;2023-04-03T07:31:14;10.65;;;3.08;;
75504;SDS011;64085;54.974;73.410;2023-04-03T07:33:42;10.18;;;3.13;;
75504;SDS011;64085;54.974;73.410;2023-04-03T07:36:09;7.03;;;2.67;;
75504;SDS011;64085;54.974;73.410;2023-04-03T07:38:39;10.25;;;3.47;;
75504;SDS011;64085;54.974;73.410;2023-04-03T07:41:05;8.25;;;3.25;;
75504;SDS011;64085;54.974;73.410;2023-04-03T07:43:50;7.55;;;3.88;;
75504;SDS011;64085;54.974;73.410;2023-04-03T07:46:15;8.38;;;3.83;;
75504;SDS011;64085;54.974;73.410;2023-04-03T07:48:42;8.02;;;3.38;;
75504;SDS011;64085;54.974;73.410;2023-04-03T07:51:09;9.52;;;3.53;;
75504;SDS011;64085;54.974;73.410;2023-04-03T07:53:35;6.32;;;3.20;;
75504;SDS011;64085;54.974;73.410;2023-04-03T07:56:01;8.60;;;3.08;;
75504;SDS011;64085;54.974;73.410;2023-04-03T07:58:28;8.43;;;3.20;;
75504;SDS011;64085;54.974;73.410;2023-04-03T08:00:54;5.72;;;2.60;;
75504;SDS011;64085;54.974;73.410;2023-04-03T08:03:19;6.57;;;3.05;;
75504;SDS011;64085;54.974;73.410;2023-04-03T08:05:47;9.75;;;3.80;;
75504;SDS011;64085;54.974;73.410;2023-04-03T08:08:15;10.25;;;3.63;;
75504;SDS011;64085;54.974;73.410;2023-04-03T08:10:42;14.52;;;3.22;;
75504;SDS011;64085;54.974;73.410;2023-04-03T08:13:27;8.40;;;2.67;;
75504;SDS011;64085;54.974;73.410;2023-04-03T08:16:13;5.63;;;2.40;;
75504;SDS011;64085;54.974;73.410;2023-04-03T08:18:42;9.75;;;3.05;;
75504;SDS011;64085;54.974;73.410;2023-04-03T08:21:26;7.43;;;3.17;;
75504;SDS011;64085;54.974;73.410;2023-04-03T08:24:10;7.15;;;2.58;;
75504;SDS011;64085;54.974;73.410;2023-04-03T08:26:36;7.45;;;3.05;;
75504;SDS011;64085;54.974;73.410;2023-04-03T08:29:02;5.45;;;3.08;;
75504;SDS011;64085;54.974;73.410;2023-04-03T08:31:28;7.13;;;2.80;;
75504;SDS011;64085;54.974;73.410;2023-04-03T08:36:38;7.55;;;3.20;;
75504;SDS011;64085;54.974;73.410;2023-04-03T08:39:03;10.65;;;3.15;;
75504;SDS011;64085;54.974;73.410;2023-04-03T08:44:15;5.00;;;2.10;;
75504;SDS011;64085;54.974;73.410;2023-04-03T08:49:57;4.57;;;2.78;;
75504;SDS011;64085;54.974;73.410;2023-04-03T08:52:32;6.57;;;2.88;;
75504;SDS011;64085;54.974;73.410;2023-04-03T08:55:39;4.82;;;2.65;;
75504;SDS011;64085;54.974;73.410;2023-04-03T08:58:15;4.45;;;2.05;;
75504;SDS011;64085;54.974;73.410;2023-04-03T09:00:50;6.68;;;2.40;;
75504;SDS011;64085;54.974;73.410;2023-04-03T09:03:36;5.47;;;2.72;;
75504;SDS011;64085;54.974;73.410;2023-04-03T09:06:21;5.53;;;2.55;;
75504;SDS011;64085;54.974;73.410;2023-04-03T09:17:00;6.97;;;2.38;;
75504;SDS011;64085;54.974;73.410;2023-04-03T09:22:34;8.70;;;3.60;;
75504;SDS011;64085;54.974;73.410;2023-04-03T09:25:13;10.57;;;3.15;;
75504;SDS011;64085;54.974;73.410;2023-04-03T09:27:42;8.20;;;3.35;;
75504;SDS011;64085;54.974;73.410;2023-04-03T09:30:26;4.15;;;2.70;;
75504;SDS011;64085;54.974;73.410;2023-04-03T09:32:54;9.98;;;3.05;;
75504;SDS011;64085;54.974;73.410;2023-04-03T09:38:01;8.65;;;2.70;;
75504;SDS011;64085;54.974;73.410;2023-04-03T09:43:51;8.80;;;3.35;;
75504;SDS011;64085;54.974;73.410;2023-04-03T09:46:37;8.30;;;3.28;;
75504;SDS011;64085;54.974;73.410;2023-04-03T09:49:04;10.80;;;3.17;;
75504;SDS011;64085;54.974;73.410;2023-04-03T09:51:31;14.98;;;4.20;;
75504;SDS011;64085;54.974;73.410;2023-04-03T09:53:57;5.57;;;2.45;;
75504;SDS011;64085;54.974;73.410;2023-04-03T09:56:27;3.80;;;2.22;;
75504;SDS011;64085;54.974;73.410;2023-04-03T10:01:35;6.25;;;2.33;;
75504;SDS011;64085;54.974;73.410;2023-04-03T10:06:34;5.93;;;1.95;;
75504;SDS011;64085;54.974;73.410;2023-04-03T10:11:59;4.80;;;2.28;;
75504;SDS011;64085;54.974;73.410;2023-04-03T10:14:37;10.00;;;2.20;;
75504;SDS011;64085;54.974;73.410;2023-04-03T10:19:39;4.50;;;2.55;;
75504;SDS011;64085;54.974;73.410;2023-04-03T10:24:51;5.95;;;2.55;;
75504;SDS011;64085;54.974;73.410;2023-04-03T10:27:52;6.80;;;2.65;;
75504;SDS011;64085;54.974;73.410;2023-04-03T10:36:27;5.53;;;3.00;;
75504;SDS011;64085;54.974;73.410;2023-04-03T10:47:45;8.02;;;3.50;;
75504;SDS011;64085;54.974;73.410;2023-04-03T10:50:27;5.78;;;3.45;;
75504;SDS011;64085;54.974;73.410;2023-04-03T11:01:56;8.30;;;3.75;;
75504;SDS011;64085;54.974;73.410;2023-04-03T11:04:27;9.27;;;4.10;;
75504;SDS011;64085;54.974;73.410;2023-04-03T11:07:18;19.25;;;7.45;;
75504;SDS011;64085;54.974;73.410;2023-04-03T11:09:52;10.10;;;3.92;;
75504;SDS011;64085;54.974;73.410;2023-04-03T11:12:25;9.38;;;3.90;;
75504;SDS011;64085;54.974;73.410;2023-04-03T11:18:04;4.95;;;2.20;;
75504;SDS011;64085;54.974;73.410;2023-04-03T11:20:36;4.60;;;2.28;;
75504;SDS011;64085;54.974;73.410;2023-04-03T11:23:04;7.53;;;3.13;;
75504;SDS011;64085;54.974;73.410;2023-04-03T11:28:25;9.07;;;3.47;;
75504;SDS011;64085;54.974;73.410;2023-04-03T11:30:57;5.35;;;2.38;;
75504;SDS011;64085;54.974;73.410;2023-04-03T11:39:28;5.97;;;2.35;;
75504;SDS011;64085;54.974;73.410;2023-04-03T11:48:09;7.72;;;2.67;;
75504;SDS011;64085;54.974;73.410;2023-04-03T11:50:58;5.20;;;2.10;;
75504;SDS011;64085;54.974;73.410;2023-04-03T11:56:50;6.00;;;2.78;;
75504;SDS011;64085;54.974;73.410;2023-04-03T11:59:36;5.85;;;2.25;;
75504;SDS011;64085;54.974;73.410;2023-04-03T12:13:34;9.50;;;3.38;;
75504;SDS011;64085;54.974;73.410;2023-04-03T12:16:00;11.20;;;3.22;;
75504;SDS011;64085;54.974;73.410;2023-04-03T12:21:12;3.92;;;2.58;;
75504;SDS011;64085;54.974;73.410;2023-04-03T12:29:29;12.60;;;2.78;;
75504;SDS011;64085;54.974;73.410;2023-04-03T12:47:20;12.25;;;3.47;;
75504;SDS011;64085;54.974;73.410;2023-04-03T12:49:58;9.13;;;2.88;;
75504;SDS011;64085;54.974;73.410;2023-04-03T12:55:14;7.10;;;2.90;;
75504;SDS011;64085;54.974;73.410;2023-04-03T12:58:24;11.07;;;3.38;;
75504;SDS011;64085;54.974;73.410;2023-04-03T13:01:11;8.32;;;3.55;;
75504;SDS011;64085;54.974;73.410;2023-04-03T13:03:40;6.47;;;3.47;;
75504;SDS011;64085;54.974;73.410;2023-04-03T13:06:34;8.38;;;4.03;;
75504;SDS011;64085;54.974;73.410;2023-04-03T13:09:03;13.43;;;5.72;;
75504;SDS011;64085;54.974;73.410;2023-04-03T13:11:34;10.10;;;4.97;;
75504;SDS011;64085;54.974;73.410;2023-04-03T13:14:20;15.90;;;5.60;;
75504;SDS011;64085;54.974;73.410;2023-04-03T13:16:58;14.77;;;6.30;;
75504;SDS011;64085;54.974;73.410;2023-04-03T13:19:29;12.68;;;5.47;;
75504;SDS011;64085;54.974;73.410;2023-04-03T13:22:10;14.82;;;5.25;;
75504;SDS011;64085;54.974;73.410;2023-04-03T13:24:50;13.73;;;5.32;;
75504;SDS011;64085;54.974;73.410;2023-04-03T13:27:17;8.18;;;5.13;;
75504;SDS011;64085;54.974;73.410;2023-04-03T13:29:48;11.60;;;4.55;;
75504;SDS011;64085;54.974;73.410;2023-04-03T13:35:27;8.68;;;4.85;;
75504;SDS011;64085;54.974;73.410;2023-04-03T13:38:01;13.60;;;5.10;;
75504;SDS011;64085;54.974;73.410;2023-04-03T13:40:32;15.70;;;6.65;;
75504;SDS011;64085;54.974;73.410;2023-04-03T13:43:00;12.05;;;6.18;;
75504;SDS011;64085;54.974;73.410;2023-04-03T13:46:44;19.73;;;7.47;;
75504;SDS011;64085;54.974;73.410;2023-04-03T13:48:42;19.58;;;7.72;;
75504;SDS011;64085;54.974;73.410;2023-04-03T13:53:58;21.50;;;8.10;;
75504;SDS011;64085;54.974;73.410;2023-04-03T13:56:33;24.15;;;7.90;;
75504;SDS011;64085;54.974;73.410;2023-04-03T14:01:54;17.38;;;8.45;;
75504;SDS011;64085;54.974;73.410;2023-04-03T14:04:33;24.17;;;9.60;;
75504;SDS011;64085;54.974;73.410;2023-04-03T14:07:12;23.73;;;10.18;;
75504;SDS011;64085;54.974;73.410;2023-04-03T14:09:41;16.05;;;7.60;;
75504;SDS011;64085;54.974;73.410;2023-04-03T14:12:27;23.30;;;9.40;;
75504;SDS011;64085;54.974;73.410;2023-04-03T14:15:02;19.92;;;7.30;;
75504;SDS011;64085;54.974;73.410;2023-04-03T14:17:46;19.38;;;8.38;;
75504;SDS011;64085;54.974;73.410;2023-04-03T14:20:19;14.10;;;6.22;;
75504;SDS011;64085;54.974;73.410;2023-04-03T14:22:47;14.68;;;6.78;;
75504;SDS011;64085;54.974;73.410;2023-04-03T14:25:14;18.35;;;8.35;;
75504;SDS011;64085;54.974;73.410;2023-04-03T14:27:59;16.50;;;6.80;;
75504;SDS011;64085;54.974;73.410;2023-04-03T14:30:26;16.45;;;8.18;;
75504;SDS011;64085;54.974;73.410;2023-04-03T14:32:54;20.08;;;8.80;;
75504;SDS011;64085;54.974;73.410;2023-04-03T14:35:20;15.90;;;7.50;;
75504;SDS011;64085;54.974;73.410;2023-04-03T14:40:38;15.23;;;8.27;;
75504;SDS011;64085;54.974;73.410;2023-04-03T14:43:05;23.45;;;9.85;;
75504;SDS011;64085;54.974;73.410;2023-04-03T14:45:31;22.88;;;11.60;;
75504;SDS011;64085;54.974;73.410;2023-04-03T14:47:56;24.52;;;10.88;;
75504;SDS011;64085;54.974;73.410;2023-04-03T14:50:25;22.05;;;10.18;;
75504;SDS011;64085;54.974;73.410;2023-04-03T14:52:53;19.63;;;9.50;;
75504;SDS011;64085;54.974;73.410;2023-04-03T14:55:21;18.25;;;8.70;;
75504;SDS011;64085;54.974;73.410;2023-04-03T15:00:49;17.00;;;8.77;;
75504;SDS011;64085;54.974;73.410;2023-04-03T15:03:19;25.27;;;7.30;;
75504;SDS011;64085;54.974;73.410;2023-04-03T15:05:47;19.70;;;8.48;;
75504;SDS011;64085;54.974;73.410;2023-04-03T15:11:06;22.88;;;9.52;;
75504;SDS011;64085;54.974;73.410;2023-04-03T15:13:32;16.85;;;7.43;;
75504;SDS011;64085;54.974;73.410;2023-04-03T15:15:58;15.18;;;7.28;;
75504;SDS011;64085;54.974;73.410;2023-04-03T15:18:25;17.70;;;7.07;;
75504;SDS011;64085;54.974;73.410;2023-04-03T15:21:10;12.48;;;7.55;;
75504;SDS011;64085;54.974;73.410;2023-04-03T15:23:36;12.02;;;6.32;;
75504;SDS011;64085;54.974;73.410;2023-04-03T15:26:02;11.18;;;8.13;;
75504;SDS011;64085;54.974;73.410;2023-04-03T15:28:32;18.45;;;8.38;;
75504;SDS011;64085;54.974;73.410;2023-04-03T15:33:29;14.02;;;7.60;;
75504;SDS011;64085;54.974;73.410;2023-04-03T15:35:55;16.27;;;8.98;;
75504;SDS011;64085;54.974;73.410;2023-04-03T15:38:21;18.02;;;7.35;;
75504;SDS011;64085;54.974;73.410;2023-04-03T15:40:47;18.23;;;7.43;;
75504;SDS011;64085;54.974;73.410;2023-04-03T15:43:13;14.32;;;6.07;;
75504;SDS011;64085;54.974;73.410;2023-04-03T15:45:40;12.63;;;7.05;;
75504;SDS011;64085;54.974;73.410;2023-04-03T15:48:25;14.90;;;8.00;;
75504;SDS011;64085;54.974;73.410;2023-04-03T15:50:52;20.40;;;8.93;;
75504;SDS011;64085;54.974;73.410;2023-04-03T15:53:18;18.83;;;9.57;;
75504;SDS011;64085;54.974;73.410;2023-04-03T15:55:43;17.08;;;8.05;;
75504;SDS011;64085;54.974;73.410;2023-04-03T16:00:53;12.90;;;6.68;;
75504;SDS011;64085;54.974;73.410;2023-04-03T16:03:20;18.15;;;7.47;;
75504;SDS011;64085;54.974;73.410;2023-04-03T16:05:47;15.07;;;6.88;;
75504;SDS011;64085;54.974;73.410;2023-04-03T16:08:14;18.48;;;7.53;;
75504;SDS011;64085;54.974;73.410;2023-04-03T16:13:24;19.58;;;7.38;;
75504;SDS011;64085;54.974;73.410;2023-04-03T16:15:50;10.68;;;5.15;;
75504;SDS011;64085;54.974;73.410;2023-04-03T16:18:34;13.48;;;6.30;;
75504;SDS011;64085;54.974;73.410;2023-04-03T16:21:01;14.10;;;6.75;;
75504;SDS011;64085;54.974;73.410;2023-04-03T16:23:27;20.77;;;8.38;;
75504;SDS011;64085;54.974;73.410;2023-04-03T16:26:11;10.02;;;4.93;;
75504;SDS011;64085;54.974;73.410;2023-04-03T16:28:37;24.38;;;7.50;;
75504;SDS011;64085;54.974;73.410;2023-04-03T16:31:02;11.75;;;5.20;;
75504;SDS011;64085;54.974;73.410;2023-04-03T16:36:14;15.93;;;5.90;;
75504;SDS011;64085;54.974;73.410;2023-04-03T16:38:40;8.68;;;4.53;;
75504;SDS011;64085;54.974;73.410;2023-04-03T16:41:06;13.35;;;5.95;;
75504;SDS011;64085;54.974;73.410;2023-04-03T16:43:32;12.05;;;5.57;;
75504;SDS011;64085;54.974;73.410;2023-04-03T16:45:58;11.82;;;5.13;;
75504;SDS011;64085;54.974;73.410;2023-04-03T16:48:24;9.00;;;4.88;;
75504;SDS011;64085;54.974;73.410;2023-04-03T16:50:50;7.47;;;2.97;;
75504;SDS011;64085;54.974;73.410;2023-04-03T16:53:18;9.30;;;4.30;;
75504;SDS011;64085;54.974;73.410;2023-04-03T16:56:03;6.78;;;2.70;;
75504;SDS011;64085;54.974;73.410;2023-04-03T16:58:28;6.43;;;3.05;;
75504;SDS011;64085;54.974;73.410;2023-04-03T17:00:54;6.22;;;3.47;;
75504;SDS011;64085;54.974;73.410;2023-04-03T17:09:31;6.85;;;2.90;;
75504;SDS011;64085;54.974;73.410;2023-04-03T17:11:57;5.53;;;3.13;;
75504;SDS011;64085;54.974;73.410;2023-04-03T17:14:23;5.20;;;3.35;;
75504;SDS011;64085;54.974;73.410;2023-04-03T17:16:49;10.80;;;4.80;;
75504;SDS011;64085;54.974;73.410;2023-04-03T17:19:15;9.00;;;3.97;;
75504;SDS011;64085;54.974;73.410;2023-04-03T17:21:42;10.80;;;4.22;;
75504;SDS011;64085;54.974;73.410;2023-04-03T17:26:53;5.78;;;3.33;;
75504;SDS011;64085;54.974;73.410;2023-04-03T17:29:18;12.27;;;6.55;;
75504;SDS011;64085;54.974;73.410;2023-04-03T17:31:44;16.40;;;7.88;;
75504;SDS011;64085;54.974;73.410;2023-04-03T17:34:28;14.23;;;5.78;;
75504;SDS011;64085;54.974;73.410;2023-04-03T17:36:54;11.93;;;5.95;;
75504;SDS011;64085;54.974;73.410;2023-04-03T17:39:20;6.63;;;3.95;;
75504;SDS011;64085;54.974;73.410;2023-04-03T17:41:46;7.70;;;3.47;;
75504;SDS011;64085;54.974;73.410;2023-04-03T17:44:13;7.65;;;4.32;;
75504;SDS011;64085;54.974;73.410;2023-04-03T17:46:39;10.00;;;4.45;;
75504;SDS011;64085;54.974;73.410;2023-04-03T17:49:04;6.85;;;3.38;;
75504;SDS011;64085;54.974;73.410;2023-04-03T17:54:15;10.60;;;3.35;;
75504;SDS011;64085;54.974;73.410;2023-04-03T17:56:41;10.00;;;2.72;;
75504;SDS011;64085;54.974;73.410;2023-04-03T17:59:12;13.02;;;4.53;;
75504;SDS011;64085;54.974;73.410;2023-04-03T18:01:42;9.68;;;3.28;;
75504;SDS011;64085;54.974;73.410;2023-04-03T18:04:10;8.65;;;3.15;;
75504;SDS011;64085;54.974;73.410;2023-04-03T18:06:37;8.63;;;3.53;;
75504;SDS011;64085;54.974;73.410;2023-04-03T18:09:07;6.38;;;3.20;;
75504;SDS011;64085;54.974;73.410;2023-04-03T18:11:38;5.57;;;2.63;;
75504;SDS011;64085;54.974;73.410;2023-04-03T18:16:50;7.28;;;2.13;;
75504;SDS011;64085;54.974;73.410;2023-04-03T18:19:15;5.07;;;2.45;;